createdAt,value
2018-12-01T00:01:20.369Z,0.80
2018-12-01T00:04:29.828Z,0.90
2018-12-01T00:07:38.984Z,0.80
2018-12-01T00:10:48.261Z,0.90
2018-12-01T00:13:57.498Z,0.80
2018-12-01T00:17:06.632Z,0.90
2018-12-01T00:20:17.406Z,0.90
2018-12-01T00:23:26.691Z,0.90
2018-12-01T00:26:35.979Z,0.90
2018-12-01T00:29:45.274Z,0.90
2018-12-01T00:32:55.673Z,0.90
2018-12-01T00:36:05.245Z,0.90
2018-12-01T00:39:14.598Z,0.90
2018-12-01T00:42:23.897Z,0.90
2018-12-01T00:45:33.200Z,0.90
2018-12-01T00:48:42.471Z,0.90
2018-12-01T00:51:51.823Z,0.90
2018-12-01T00:55:00.990Z,0.90
2018-12-01T00:58:10.267Z,0.80
2018-12-01T01:01:19.409Z,0.90
2018-12-01T01:04:28.536Z,0.80
2018-12-01T01:07:37.920Z,0.80
2018-12-01T01:10:47.232Z,0.90
2018-12-01T01:13:56.458Z,0.90
2018-12-01T01:17:05.733Z,0.80
2018-12-01T01:20:16.112Z,0.90
2018-12-01T01:23:25.310Z,0.90
2018-12-01T01:26:34.447Z,0.90
2018-12-01T01:29:43.780Z,0.90
2018-12-01T01:33:03.301Z,1.00
2018-12-01T01:36:12.527Z,0.90
2018-12-01T01:39:21.744Z,0.90
2018-12-01T01:42:30.958Z,0.90
2018-12-01T01:45:40.122Z,0.90
2018-12-01T01:48:49.413Z,1.00
2018-12-01T01:51:58.912Z,1.00
2018-12-01T01:55:09.353Z,1.00
2018-12-01T01:58:18.555Z,1.00
2018-12-01T02:01:27.726Z,1.00
2018-12-01T02:04:37.021Z,1.00
2018-12-01T02:07:46.154Z,1.00
2018-12-01T02:10:55.306Z,1.00
2018-12-01T02:14:04.574Z,1.00
2018-12-01T02:17:13.716Z,1.00
2018-12-01T02:20:23.024Z,1.00
2018-12-01T02:23:32.440Z,1.00
2018-12-01T02:26:41.714Z,1.00
2018-12-01T02:29:51.176Z,1.00
2018-12-01T02:33:01.676Z,1.00
2018-12-01T02:36:11.020Z,1.00
2018-12-01T02:39:20.155Z,1.00
2018-12-01T02:42:29.433Z,1.00
2018-12-01T02:45:50.127Z,1.00
2018-12-01T02:48:59.329Z,1.00
2018-12-01T02:52:08.558Z,1.00
2018-12-01T02:55:17.926Z,1.00
2018-12-01T02:58:27.301Z,1.00
2018-12-01T03:01:36.679Z,1.10
2018-12-01T03:04:46.028Z,1.10
2018-12-01T03:07:55.421Z,1.10
2018-12-01T03:11:04.605Z,1.10
2018-12-01T03:14:13.914Z,1.10
2018-12-01T03:17:23.176Z,1.10
2018-12-01T03:20:32.424Z,1.10
2018-12-01T03:23:41.701Z,1.10
2018-12-01T03:26:51.075Z,1.10
2018-12-01T03:30:00.342Z,1.10
2018-12-01T03:33:10.617Z,1.20
2018-12-01T03:36:19.973Z,1.10
2018-12-01T03:39:29.167Z,1.10
2018-12-01T03:42:38.652Z,1.20
2018-12-01T03:45:47.946Z,1.20
2018-12-01T03:48:57.244Z,1.20
2018-12-01T03:52:06.627Z,1.20
2018-12-01T03:55:23.875Z,1.20
2018-12-01T03:58:33.087Z,1.20
2018-12-01T04:01:42.550Z,1.10
2018-12-01T04:04:51.832Z,1.20
2018-12-01T04:08:00.977Z,1.20
2018-12-01T04:11:10.248Z,1.10
2018-12-01T04:14:19.516Z,1.20
2018-12-01T04:17:28.857Z,1.20
2018-12-01T04:20:38.344Z,1.20
2018-12-01T04:23:47.643Z,1.20
2018-12-01T04:26:56.909Z,1.20
2018-12-01T04:30:10.499Z,1.20
2018-12-01T04:33:19.729Z,1.20
2018-12-01T04:36:28.940Z,1.20
2018-12-01T04:39:38.239Z,1.20
2018-12-01T04:42:47.932Z,1.20
2018-12-01T04:45:57.321Z,1.30
2018-12-01T04:49:06.727Z,1.30
2018-12-01T04:52:16.130Z,1.30
2018-12-01T04:55:25.273Z,1.30
2018-12-01T04:58:34.404Z,1.30
2018-12-01T05:01:43.823Z,1.30
2018-12-01T05:04:59.857Z,1.30
2018-12-01T05:08:09.052Z,1.30
2018-12-01T05:11:18.196Z,1.30
2018-12-01T05:14:27.424Z,1.30
2018-12-01T05:17:37.055Z,1.30
2018-12-01T05:20:46.305Z,1.40
2018-12-01T05:23:55.577Z,1.40
2018-12-01T05:27:04.834Z,1.40
2018-12-01T05:30:14.092Z,1.30
2018-12-01T05:33:23.369Z,1.30
2018-12-01T05:36:32.648Z,1.30
2018-12-01T05:39:42.112Z,1.40
2018-12-01T05:42:51.296Z,1.40
2018-12-01T05:46:00.510Z,1.40
2018-12-01T05:49:09.731Z,1.40
2018-12-01T05:52:19.054Z,1.40
2018-12-01T05:55:28.416Z,1.40
2018-12-01T05:58:37.688Z,1.40
2018-12-01T06:01:47.020Z,1.40
2018-12-01T06:04:56.364Z,1.40
2018-12-01T06:08:06.673Z,1.40
2018-12-01T06:11:15.941Z,1.40
2018-12-01T06:14:25.607Z,1.40
2018-12-01T06:17:34.972Z,1.50
2018-12-01T06:20:44.389Z,1.50
2018-12-01T06:23:53.679Z,1.50
2018-12-01T06:30:25.888Z,1.50
2018-12-01T06:33:39.325Z,1.50
2018-12-01T06:36:49.922Z,1.50
2018-12-01T06:39:59.373Z,1.60
2018-12-01T06:43:08.705Z,1.60
2018-12-01T06:46:17.857Z,1.60
2018-12-01T06:49:27.173Z,1.60
2018-12-01T06:52:36.494Z,1.60
2018-12-01T06:55:45.759Z,1.70
2018-12-01T06:58:54.901Z,1.70
2018-12-01T07:02:04.177Z,1.70
2018-12-01T07:05:14.260Z,1.70
2018-12-01T07:08:23.436Z,1.70
2018-12-01T07:11:32.659Z,1.70
2018-12-01T07:14:41.876Z,1.70
2018-12-01T07:17:51.016Z,1.80
2018-12-01T07:21:00.419Z,1.80
2018-12-01T07:24:09.586Z,1.80
2018-12-01T07:27:24.961Z,1.90
2018-12-01T07:30:34.365Z,1.90
2018-12-01T07:33:43.572Z,2.00
2018-12-01T07:36:53.081Z,2.00
2018-12-01T07:40:02.282Z,2.00
2018-12-01T07:43:11.496Z,2.10
2018-12-01T07:46:20.737Z,2.10
2018-12-01T07:49:30.179Z,2.10
2018-12-01T07:52:39.447Z,2.20
2018-12-01T07:55:48.838Z,2.20
2018-12-01T07:58:58.177Z,2.20
2018-12-01T08:02:07.458Z,2.30
2018-12-01T08:05:16.727Z,2.30
2018-12-01T08:08:26.067Z,2.30
2018-12-01T08:11:35.266Z,2.40
2018-12-01T08:14:44.512Z,2.40
2018-12-01T08:17:53.608Z,2.50
2018-12-01T08:21:02.752Z,2.60
2018-12-01T08:24:11.977Z,2.60
2018-12-01T08:27:21.383Z,2.70
2018-12-01T08:30:32.100Z,2.70
2018-12-01T08:33:41.188Z,2.80
2018-12-01T08:36:50.597Z,2.80
2018-12-01T08:39:59.888Z,2.80
2018-12-01T08:43:09.167Z,2.90
2018-12-01T08:46:18.339Z,2.90
2018-12-01T08:49:27.807Z,3.00
2018-12-01T08:52:37.213Z,3.10
2018-12-01T08:55:46.484Z,3.20
2018-12-01T08:58:55.714Z,3.20
2018-12-01T09:02:05.071Z,3.30
2018-12-01T09:05:14.385Z,3.30
2018-12-01T09:08:23.649Z,3.40
2018-12-01T09:11:32.777Z,3.40
2018-12-01T09:14:42.188Z,3.40
2018-12-01T09:17:51.458Z,3.40
2018-12-01T09:21:00.660Z,3.40
2018-12-01T09:24:09.890Z,3.40
2018-12-01T09:27:22.551Z,3.40
2018-12-01T09:30:29.693Z,3.50
2018-12-01T09:33:38.873Z,3.60
2018-12-01T09:36:48.193Z,3.80
2018-12-01T09:39:57.388Z,3.90
2018-12-01T09:43:06.789Z,3.80
2018-12-01T09:46:16.168Z,3.80
2018-12-01T09:49:25.301Z,3.90
2018-12-01T09:52:34.706Z,4.10
2018-12-01T09:55:44.111Z,4.30
2018-12-01T09:58:53.554Z,4.40
2018-12-01T10:02:02.890Z,4.50
2018-12-01T10:05:13.490Z,4.70
2018-12-01T10:08:22.750Z,4.80
2018-12-01T10:11:32.092Z,4.90
2018-12-01T10:14:41.609Z,4.90
2018-12-01T10:17:51.061Z,4.90
2018-12-01T10:21:00.268Z,4.90
2018-12-01T10:24:09.529Z,4.90
2018-12-01T10:27:18.810Z,4.80
2018-12-01T10:30:27.890Z,4.80
2018-12-01T10:33:37.434Z,4.80
2018-12-01T10:36:46.732Z,4.80
2018-12-01T10:39:56.046Z,4.80
2018-12-01T10:43:06.366Z,4.80
2018-12-01T10:46:15.601Z,4.90
2018-12-01T10:49:25.063Z,5.00
2018-12-01T10:52:34.272Z,5.10
2018-12-01T10:55:43.667Z,5.20
2018-12-01T10:58:52.851Z,5.30
2018-12-01T11:02:07.499Z,5.30
2018-12-01T11:05:16.680Z,5.40
2018-12-01T11:08:26.001Z,5.50
2018-12-01T11:11:35.381Z,5.60
2018-12-01T11:14:47.649Z,5.70
2018-12-01T11:17:56.980Z,5.80
2018-12-01T11:21:06.104Z,5.90
2018-12-01T11:24:15.593Z,6.00
2018-12-01T11:27:24.969Z,6.10
2018-12-01T11:30:34.472Z,6.20
2018-12-01T11:33:43.638Z,6.20
2018-12-01T11:36:53.118Z,6.20
2018-12-01T11:41:34.965Z,6.10
2018-12-01T11:44:44.763Z,6.10
2018-12-01T11:47:53.940Z,6.20
2018-12-01T11:51:03.170Z,6.40
2018-12-01T11:58:14.899Z,6.50
2018-12-01T12:01:24.200Z,6.60
2018-12-01T12:08:27.644Z,6.70
2018-12-01T12:11:36.796Z,6.70
2018-12-01T12:14:46.107Z,6.70
2018-12-01T12:17:56.875Z,6.70
2018-12-01T12:21:06.064Z,6.70
2018-12-01T12:24:15.319Z,6.70
2018-12-01T12:27:24.663Z,6.70
2018-12-01T12:30:33.932Z,6.70
2018-12-01T12:33:43.164Z,6.70
2018-12-01T12:36:52.364Z,6.80
2018-12-01T12:40:01.633Z,6.80
2018-12-01T12:43:11.172Z,6.80
2018-12-01T12:46:20.509Z,6.90
2018-12-01T12:49:29.936Z,6.90
2018-12-01T12:52:39.318Z,6.90
2018-12-01T12:55:48.521Z,6.90
2018-12-01T12:58:57.868Z,6.90
2018-12-01T13:02:07.313Z,6.90
2018-12-01T13:05:18.675Z,6.80
2018-12-01T13:08:27.827Z,6.90
2018-12-01T13:11:36.984Z,6.80
2018-12-01T13:14:46.164Z,6.90
2018-12-01T13:17:55.520Z,6.90
2018-12-01T13:21:05.155Z,6.90
2018-12-01T13:24:14.389Z,6.90
2018-12-01T13:27:23.723Z,6.90
2018-12-01T13:30:37.977Z,6.90
2018-12-01T13:33:47.232Z,6.90
2018-12-01T13:36:56.374Z,6.90
2018-12-01T13:40:09.423Z,6.90
2018-12-01T13:44:57.614Z,6.50
2018-12-01T13:48:07.670Z,6.90
2018-12-01T13:51:17.071Z,6.90
2018-12-01T13:54:26.308Z,7.00
2018-12-01T13:57:35.730Z,7.00
2018-12-01T14:00:44.861Z,6.90
2018-12-01T14:03:54.183Z,6.90
2018-12-01T14:07:03.389Z,6.80
2018-12-01T14:10:18.532Z,6.70
2018-12-01T14:13:27.788Z,6.70
2018-12-01T14:16:36.987Z,6.60
2018-12-01T14:19:46.776Z,6.60
2018-12-01T14:22:55.984Z,6.60
2018-12-01T14:26:05.511Z,6.60
2018-12-01T14:29:14.807Z,6.50
2018-12-01T14:32:24.093Z,6.50
2018-12-01T14:35:34.861Z,6.50
2018-12-01T14:38:44.083Z,6.40
2018-12-01T14:41:53.478Z,6.30
2018-12-01T14:45:02.668Z,6.30
2018-12-01T14:48:12.055Z,6.10
2018-12-01T14:51:21.558Z,6.00
2018-12-01T14:54:30.998Z,5.90
2018-12-01T14:57:40.365Z,5.80
2018-12-01T15:00:49.720Z,5.80
2018-12-01T15:03:59.082Z,5.70
2018-12-01T15:07:08.292Z,5.70
2018-12-01T15:10:20.754Z,5.70
2018-12-01T15:13:29.973Z,5.70
2018-12-01T15:16:39.125Z,5.70
2018-12-01T15:19:48.344Z,5.60
2018-12-01T15:22:58.272Z,5.50
2018-12-01T15:26:07.480Z,5.50
2018-12-01T15:29:16.753Z,5.40
2018-12-01T15:32:26.055Z,5.40
2018-12-01T15:35:35.407Z,5.30
2018-12-01T15:38:44.752Z,5.30
2018-12-01T15:41:54.693Z,5.20
2018-12-01T15:45:04.062Z,5.20
2018-12-01T15:48:13.434Z,5.20
2018-12-01T15:51:22.712Z,5.20
2018-12-01T15:54:32.020Z,5.10
2018-12-01T15:57:41.316Z,5.10
2018-12-01T16:00:50.607Z,5.20
2018-12-01T16:03:59.952Z,5.20
2018-12-01T16:07:09.272Z,5.20
2018-12-01T16:10:19.672Z,5.20
2018-12-01T16:13:29.159Z,5.10
2018-12-01T16:16:38.654Z,5.20
2018-12-01T16:19:47.986Z,5.20
2018-12-01T16:22:57.364Z,5.20
2018-12-01T16:26:06.650Z,5.10
2018-12-01T16:29:16.020Z,5.20
2018-12-01T16:32:25.253Z,5.20
2018-12-01T16:35:34.446Z,5.20
2018-12-01T16:38:43.785Z,5.20
2018-12-01T16:41:53.040Z,5.20
2018-12-01T16:45:02.282Z,5.40
2018-12-01T16:48:11.497Z,5.30
2018-12-01T16:51:20.637Z,5.40
2018-12-01T16:54:29.949Z,5.40
2018-12-01T16:57:39.511Z,5.30
2018-12-01T17:00:48.748Z,5.30
2018-12-01T17:03:57.845Z,5.20
2018-12-01T17:07:07.208Z,5.10
2018-12-01T17:10:17.445Z,5.10
2018-12-01T17:13:26.599Z,5.00
2018-12-01T17:16:35.944Z,5.00
2018-12-01T17:19:45.271Z,4.90
2018-12-01T17:22:57.868Z,4.90
2018-12-01T17:26:06.963Z,4.90
2018-12-01T17:29:16.414Z,4.90
2018-12-01T17:32:25.620Z,4.90
2018-12-01T17:35:34.929Z,4.90
2018-12-01T17:38:44.266Z,4.90
2018-12-01T17:41:54.107Z,4.80
2018-12-01T17:45:03.545Z,4.80
2018-12-01T17:48:12.902Z,4.80
2018-12-01T17:51:22.033Z,4.70
2018-12-01T17:54:31.243Z,4.60
2018-12-01T17:57:40.936Z,4.60
2018-12-01T18:00:50.212Z,4.60
2018-12-01T18:03:59.532Z,4.70
2018-12-01T18:07:08.875Z,4.70
2018-12-01T18:10:18.312Z,4.60
2018-12-01T18:13:27.714Z,4.50
2018-12-01T18:16:36.958Z,4.50
2018-12-01T18:19:46.361Z,4.40
2018-12-01T18:22:57.841Z,4.30
2018-12-01T18:26:07.921Z,4.30
2018-12-01T18:29:17.228Z,4.40
2018-12-01T18:32:27.491Z,4.40
2018-12-01T18:35:36.974Z,4.30
2018-12-01T18:38:47.975Z,4.30
2018-12-01T18:41:57.166Z,4.30
2018-12-01T18:45:09.746Z,4.30
2018-12-01T18:48:19.079Z,4.20
2018-12-01T18:51:28.306Z,4.20
2018-12-01T18:54:37.726Z,4.20
2018-12-01T18:57:46.933Z,4.20
2018-12-01T19:00:57.132Z,4.10
2018-12-01T19:04:06.467Z,4.10
2018-12-01T19:07:15.652Z,4.10
2018-12-01T19:10:25.021Z,4.20
2018-12-01T19:13:34.335Z,4.20
2018-12-01T19:16:43.721Z,4.20
2018-12-01T19:19:53.105Z,4.10
2018-12-01T19:23:02.500Z,4.10
2018-12-01T19:26:11.900Z,4.10
2018-12-01T19:29:21.067Z,4.10
2018-12-01T19:32:30.318Z,4.10
2018-12-01T19:35:40.108Z,4.10
2018-12-01T19:38:49.288Z,4.10
2018-12-01T19:41:58.628Z,4.10
2018-12-01T19:45:09.078Z,4.00
2018-12-01T19:48:17.864Z,4.00
2018-12-01T19:51:27.079Z,4.00
2018-12-01T19:54:36.499Z,4.00
2018-12-01T19:57:45.744Z,4.00
2018-12-01T20:00:56.277Z,4.00
2018-12-01T20:04:05.929Z,4.00
2018-12-01T20:07:15.345Z,4.00
2018-12-01T20:10:29.336Z,4.00
2018-12-01T20:13:40.959Z,4.10
2018-12-01T20:16:52.738Z,4.10
2018-12-01T20:20:01.856Z,4.00
2018-12-01T20:23:11.134Z,4.00
2018-12-01T20:26:20.206Z,4.00
2018-12-01T20:29:29.356Z,3.90
2018-12-01T20:32:38.539Z,3.90
2018-12-01T20:35:56.951Z,3.90
2018-12-01T20:39:14.394Z,3.80
2018-12-01T20:42:23.546Z,3.80
2018-12-01T20:45:32.918Z,3.80
2018-12-01T20:48:42.268Z,3.70
2018-12-01T20:51:51.468Z,3.70
2018-12-01T20:55:00.796Z,3.70
2018-12-01T20:58:09.923Z,3.70
2018-12-01T21:01:19.318Z,3.60
2018-12-01T21:04:28.501Z,3.60
2018-12-01T21:07:37.800Z,3.60
2018-12-01T21:10:50.312Z,3.60
2018-12-01T21:14:00.041Z,3.60
2018-12-01T21:17:08.828Z,3.50
2018-12-01T21:20:18.469Z,3.50
2018-12-01T21:23:27.715Z,3.60
2018-12-01T21:26:37.134Z,3.60
2018-12-01T21:29:46.621Z,3.50
2018-12-01T21:33:00.662Z,3.50
2018-12-01T21:36:10.224Z,3.50
2018-12-01T21:39:19.528Z,3.40
2018-12-01T21:42:28.828Z,3.30
2018-12-01T21:45:37.981Z,3.40
2018-12-01T21:48:47.330Z,3.40
2018-12-01T21:51:56.498Z,3.30
2018-12-01T21:55:08.080Z,3.40
2018-12-01T21:58:17.179Z,3.30
2018-12-01T22:01:26.524Z,3.30
2018-12-01T22:04:35.902Z,3.30
2018-12-01T22:07:45.012Z,3.30
2018-12-01T22:10:55.578Z,3.20
2018-12-01T22:14:05.347Z,3.20
2018-12-01T22:17:14.633Z,3.20
2018-12-01T22:20:24.080Z,3.20
2018-12-01T22:23:33.401Z,3.00
2018-12-01T22:26:42.564Z,3.10
2018-12-01T22:29:51.752Z,3.10
2018-12-01T22:33:01.059Z,3.20
2018-12-01T22:36:10.522Z,3.20
2018-12-01T22:39:19.735Z,3.20
2018-12-01T22:42:28.890Z,3.20
2018-12-01T22:45:38.181Z,3.20
2018-12-01T22:48:47.349Z,3.30
2018-12-01T22:51:56.611Z,3.30
2018-12-01T22:55:07.945Z,3.30
2018-12-01T22:58:18.384Z,3.30
2018-12-01T23:01:27.699Z,3.30
2018-12-01T23:04:37.081Z,3.30
2018-12-01T23:07:46.325Z,3.30
2018-12-01T23:10:55.689Z,3.30
2018-12-01T23:14:05.500Z,3.30
2018-12-01T23:17:14.584Z,3.40
2018-12-01T23:20:23.826Z,3.40
2018-12-01T23:23:33.019Z,3.40
2018-12-01T23:26:42.388Z,3.40
2018-12-01T23:29:51.627Z,3.50
2018-12-01T23:33:09.047Z,3.50
2018-12-01T23:36:18.381Z,3.50
2018-12-01T23:39:27.478Z,3.50
2018-12-01T23:42:36.837Z,3.50
2018-12-01T23:45:46.398Z,3.60
2018-12-01T23:48:55.771Z,3.60
2018-12-01T23:52:05.452Z,3.60
2018-12-01T23:55:15.052Z,3.50
2018-12-01T23:58:24.302Z,3.60
